Rockville, MD (20848)

1:52 PM EST on February 13, 2016 (GMT -0500)
Twinbrook | | Change Station
CLOSE
Current Station
Personal Weather Station
Location: Rockville, MD
Elevation: 377 ft
Nearby Weather Stations
Active Advisory: Wind Chill Advisory

Elev 377 ft 39.08 °N, 77.12 °W | Updated 2 seconds ago

Mostly Cloudy
Mostly Cloudy
22.8 °F
Feels Like 15 °F
N
6.9
Wind Variable Wind from NNW
Gusts 9.7 mph

Today
High -- | Low -- °F
--% Chance of Precip.
Yesterday
High -- | Low -- °F
Precip. -- in
Pressure 30.28 in
Visibility 10.0 miles
Clouds Overcast 6000 ft
Windchill 15 °F
Dew Point -12 °F
Humidity 20%
Rainfall 0.00 in
Snow Depth Not available.
7:02 AM 5:42 PM
Waxing Crescent, 33% visible
METAR KGAI 131835Z AUTO 29018G26KT 10SM OVC060 M07/M19 A3028 RMK AO1
Pressure 30.28 in
Visibility 10.0 miles
Clouds Overcast 6000 ft
Windchill 15 °F
Dew Point -12 °F
Humidity 20%
Rainfall 0.00 in
Snow Depth Not available.
7:02 AM 5:42 PM
Waxing Crescent, 33% visible
METAR KGAI 131835Z AUTO 29018G26KT 10SM OVC060 M07/M19 A3028 RMK AO1

10-Day Weather Forecast

Almanac

Astronomy

Feb. 13, 2016 Rise Set
Actual Time
Civil Twilight
Nautical Twilight
Astronomical Twilight
Moon
Length of Visible Light
Length of Day
Tomorrow will be .
, % of the Moon is Illuminated

Today's Extremes

State Highs State Lows

Community

WunderPhotos

Upload Photos

1,892,633 photos uploaded!

WunderBlog® & News

Nearby

Air Quality

  Air Quality AQ Index Pollutant
Not available.

Snow Depth

Station Depth Elevation

Earthquake Activity

City Distance Mag. Time & Date
Minimum magnitude displayed is 2.5.

Coastal Water Temperatures

Place Temperature

Stations

Nearby Weather Stations

Station Location Temp. Windchill Dew Point Humidity Wind Precip. Elev Updated Type
                   

Watches & Warnings

Wind Chill Advisory
Issued: 11:55 AM EST Feb. 13, 2016 – National Weather Service

... Wind Chill Advisory now in effect from 6 PM this evening to
9 am EST Sunday...

* wind chills... 0 to 5 degrees below zero.

* Winds... northwest 20 to 30 mph with gusts up to 45 mph. Winds
decreasing to 10 to 15 mph tonight.

* Temperatures... falling into the single digits to low teens
tonight.

* Timing... late tonight through Sunday morning.

* Impacts... frost bite and hypothermia are possible if
precautions are not taken.

Precautionary/preparedness actions...

A Wind Chill Advisory means that very cold air and strong winds
will combine to generate low wind chills. This will result in
frost bite and lead to hypothermia if precautions are not taken.
If you must venture outdoors... make sure you wear a hat and
gloves.